sensor_id;sensor_type;location;lat;lon;timestamp;P1;durP1;ratioP1;P2;durP2;ratioP2
8113;SDS011;4099;52.684;9.918;2023-02-12T00:00:09;33.53;;;16.00;;
8113;SDS011;4099;52.684;9.918;2023-02-12T00:05:15;32.40;;;16.07;;
8113;SDS011;4099;52.684;9.918;2023-02-12T00:10:17;30.20;;;15.40;;
8113;SDS011;4099;52.684;9.918;2023-02-12T00:15:20;35.83;;;16.03;;
8113;SDS011;4099;52.684;9.918;2023-02-12T00:20:24;29.97;;;15.50;;
8113;SDS011;4099;52.684;9.918;2023-02-12T00:25:26;29.10;;;15.97;;
8113;SDS011;4099;52.684;9.918;2023-02-12T00:30:29;28.40;;;15.70;;
8113;SDS011;4099;52.684;9.918;2023-02-12T00:35:31;28.23;;;15.70;;
8113;SDS011;4099;52.684;9.918;2023-02-12T00:40:33;24.57;;;13.37;;
8113;SDS011;4099;52.684;9.918;2023-02-12T00:45:37;26.17;;;14.83;;
8113;SDS011;4099;52.684;9.918;2023-02-12T00:50:39;24.57;;;13.90;;
8113;SDS011;4099;52.684;9.918;2023-02-12T00:55:41;24.60;;;14.23;;
8113;SDS011;4099;52.684;9.918;2023-02-12T01:00:44;25.27;;;13.27;;
8113;SDS011;4099;52.684;9.918;2023-02-12T01:05:46;29.73;;;15.17;;
8113;SDS011;4099;52.684;9.918;2023-02-12T01:10:53;22.73;;;13.53;;
8113;SDS011;4099;52.684;9.918;2023-02-12T01:16:02;29.23;;;13.07;;
8113;SDS011;4099;52.684;9.918;2023-02-12T01:21:09;23.80;;;14.20;;
8113;SDS011;4099;52.684;9.918;2023-02-12T01:26:12;21.83;;;12.90;;
8113;SDS011;4099;52.684;9.918;2023-02-12T01:31:17;24.50;;;13.47;;
8113;SDS011;4099;52.684;9.918;2023-02-12T01:36:20;25.13;;;13.23;;
8113;SDS011;4099;52.684;9.918;2023-02-12T01:41:23;21.63;;;13.00;;
8113;SDS011;4099;52.684;9.918;2023-02-12T01:46:28;23.20;;;13.37;;
8113;SDS011;4099;52.684;9.918;2023-02-12T01:51:30;25.80;;;13.67;;
8113;SDS011;4099;52.684;9.918;2023-02-12T01:56:34;25.93;;;13.70;;
8113;SDS011;4099;52.684;9.918;2023-02-12T02:01:37;25.73;;;13.10;;
8113;SDS011;4099;52.684;9.918;2023-02-12T02:06:41;25.70;;;13.83;;
8113;SDS011;4099;52.684;9.918;2023-02-12T02:11:48;24.17;;;13.47;;
8113;SDS011;4099;52.684;9.918;2023-02-12T02:17:23;24.23;;;13.70;;
8113;SDS011;4099;52.684;9.918;2023-02-12T02:22:36;26.03;;;14.13;;
8113;SDS011;4099;52.684;9.918;2023-02-12T02:27:44;34.00;;;15.77;;
8113;SDS011;4099;52.684;9.918;2023-02-12T02:33:01;34.83;;;16.33;;
8113;SDS011;4099;52.684;9.918;2023-02-12T02:38:17;42.73;;;19.03;;
8113;SDS011;4099;52.684;9.918;2023-02-12T02:43:25;46.13;;;18.70;;
8113;SDS011;4099;52.684;9.918;2023-02-12T02:48:33;48.90;;;19.77;;
8113;SDS011;4099;52.684;9.918;2023-02-12T02:53:38;49.17;;;19.87;;
8113;SDS011;4099;52.684;9.918;2023-02-12T02:58:45;46.33;;;20.40;;
8113;SDS011;4099;52.684;9.918;2023-02-12T03:03:53;50.33;;;20.60;;
8113;SDS011;4099;52.684;9.918;2023-02-12T03:09:03;49.40;;;19.50;;
8113;SDS011;4099;52.684;9.918;2023-02-12T03:14:11;50.27;;;19.83;;
8113;SDS011;4099;52.684;9.918;2023-02-12T03:19:19;47.70;;;19.83;;
8113;SDS011;4099;52.684;9.918;2023-02-12T03:24:25;44.77;;;17.67;;
8113;SDS011;4099;52.684;9.918;2023-02-12T03:29:32;41.53;;;18.00;;
8113;SDS011;4099;52.684;9.918;2023-02-12T03:34:38;38.43;;;17.20;;
8113;SDS011;4099;52.684;9.918;2023-02-12T03:39:51;34.30;;;15.77;;
8113;SDS011;4099;52.684;9.918;2023-02-12T03:44:57;31.50;;;15.87;;
8113;SDS011;4099;52.684;9.918;2023-02-12T03:50:08;34.80;;;15.90;;
8113;SDS011;4099;52.684;9.918;2023-02-12T03:55:13;36.17;;;15.50;;
8113;SDS011;4099;52.684;9.918;2023-02-12T04:00:17;33.43;;;15.47;;
8113;SDS011;4099;52.684;9.918;2023-02-12T04:05:23;41.53;;;18.30;;
8113;SDS011;4099;52.684;9.918;2023-02-12T04:10:27;45.70;;;19.57;;
8113;SDS011;4099;52.684;9.918;2023-02-12T04:15:36;51.43;;;19.07;;
8113;SDS011;4099;52.684;9.918;2023-02-12T04:20:53;48.67;;;18.57;;
8113;SDS011;4099;52.684;9.918;2023-02-12T04:26:04;41.27;;;16.70;;
8113;SDS011;4099;52.684;9.918;2023-02-12T04:31:12;45.07;;;18.07;;
8113;SDS011;4099;52.684;9.918;2023-02-12T04:36:25;38.80;;;16.73;;
8113;SDS011;4099;52.684;9.918;2023-02-12T04:41:32;37.47;;;17.73;;
8113;SDS011;4099;52.684;9.918;2023-02-12T04:46:36;38.47;;;17.03;;
8113;SDS011;4099;52.684;9.918;2023-02-12T04:51:39;57.57;;;17.97;;
8113;SDS011;4099;52.684;9.918;2023-02-12T04:56:41;49.70;;;17.20;;
8113;SDS011;4099;52.684;9.918;2023-02-12T05:01:44;42.70;;;15.97;;
8113;SDS011;4099;52.684;9.918;2023-02-12T05:06:47;49.57;;;15.67;;
8113;SDS011;4099;52.684;9.918;2023-02-12T05:11:49;38.43;;;14.87;;
8113;SDS011;4099;52.684;9.918;2023-02-12T05:16:51;41.17;;;14.97;;
8113;SDS011;4099;52.684;9.918;2023-02-12T05:21:54;38.13;;;15.87;;
8113;SDS011;4099;52.684;9.918;2023-02-12T05:26:55;38.33;;;14.93;;
8113;SDS011;4099;52.684;9.918;2023-02-12T05:31:57;39.10;;;14.90;;
8113;SDS011;4099;52.684;9.918;2023-02-12T05:37:00;40.73;;;13.83;;
8113;SDS011;4099;52.684;9.918;2023-02-12T05:42:02;38.03;;;15.00;;
8113;SDS011;4099;52.684;9.918;2023-02-12T05:47:04;38.93;;;15.57;;
8113;SDS011;4099;52.684;9.918;2023-02-12T05:52:07;32.90;;;13.57;;
8113;SDS011;4099;52.684;9.918;2023-02-12T05:57:09;39.53;;;13.93;;
8113;SDS011;4099;52.684;9.918;2023-02-12T06:02:11;33.17;;;13.23;;
8113;SDS011;4099;52.684;9.918;2023-02-12T06:07:14;29.93;;;12.70;;
8113;SDS011;4099;52.684;9.918;2023-02-12T06:12:16;44.57;;;14.37;;
8113;SDS011;4099;52.684;9.918;2023-02-12T06:17:18;57.17;;;16.57;;
8113;SDS011;4099;52.684;9.918;2023-02-12T06:22:21;74.43;;;17.07;;
8113;SDS011;4099;52.684;9.918;2023-02-12T06:27:23;92.23;;;18.27;;
8113;SDS011;4099;52.684;9.918;2023-02-12T06:32:25;64.93;;;18.97;;
8113;SDS011;4099;52.684;9.918;2023-02-12T06:37:28;67.53;;;20.30;;
8113;SDS011;4099;52.684;9.918;2023-02-12T06:42:31;109.53;;;25.13;;
8113;SDS011;4099;52.684;9.918;2023-02-12T06:47:33;96.10;;;24.47;;
8113;SDS011;4099;52.684;9.918;2023-02-12T06:52:36;116.40;;;25.87;;
8113;SDS011;4099;52.684;9.918;2023-02-12T06:57:38;147.93;;;25.97;;
8113;SDS011;4099;52.684;9.918;2023-02-12T07:02:40;97.00;;;23.00;;
8113;SDS011;4099;52.684;9.918;2023-02-12T07:07:43;155.23;;;24.10;;
8113;SDS011;4099;52.684;9.918;2023-02-12T07:12:45;103.77;;;24.63;;
8113;SDS011;4099;52.684;9.918;2023-02-12T07:17:46;152.10;;;28.70;;
8113;SDS011;4099;52.684;9.918;2023-02-12T07:22:50;111.60;;;28.63;;
8113;SDS011;4099;52.684;9.918;2023-02-12T07:27:51;155.80;;;32.83;;
8113;SDS011;4099;52.684;9.918;2023-02-12T07:32:53;96.40;;;25.37;;
8113;SDS011;4099;52.684;9.918;2023-02-12T07:37:56;95.17;;;25.60;;
8113;SDS011;4099;52.684;9.918;2023-02-12T07:42:58;82.00;;;22.23;;
8113;SDS011;4099;52.684;9.918;2023-02-12T07:48:00;112.33;;;23.87;;
8113;SDS011;4099;52.684;9.918;2023-02-12T07:53:03;112.07;;;27.93;;
8113;SDS011;4099;52.684;9.918;2023-02-12T07:58:05;168.93;;;27.33;;
8113;SDS011;4099;52.684;9.918;2023-02-12T08:03:07;183.13;;;39.17;;
8113;SDS011;4099;52.684;9.918;2023-02-12T08:08:10;190.03;;;39.90;;
8113;SDS011;4099;52.684;9.918;2023-02-12T08:13:11;113.03;;;34.83;;
8113;SDS011;4099;52.684;9.918;2023-02-12T08:18:13;112.80;;;35.60;;
8113;SDS011;4099;52.684;9.918;2023-02-12T08:23:16;93.80;;;32.57;;
8113;SDS011;4099;52.684;9.918;2023-02-12T08:28:19;82.07;;;27.50;;
8113;SDS011;4099;52.684;9.918;2023-02-12T08:33:22;59.23;;;22.27;;
8113;SDS011;4099;52.684;9.918;2023-02-12T08:38:25;67.07;;;22.63;;
8113;SDS011;4099;52.684;9.918;2023-02-12T08:43:27;77.33;;;23.27;;
8113;SDS011;4099;52.684;9.918;2023-02-12T08:48:29;70.00;;;23.33;;
8113;SDS011;4099;52.684;9.918;2023-02-12T08:53:32;69.77;;;22.80;;
8113;SDS011;4099;52.684;9.918;2023-02-12T08:58:35;64.07;;;22.97;;
8113;SDS011;4099;52.684;9.918;2023-02-12T09:03:37;64.10;;;22.00;;
8113;SDS011;4099;52.684;9.918;2023-02-12T09:08:40;62.23;;;21.47;;
8113;SDS011;4099;52.684;9.918;2023-02-12T09:13:43;60.97;;;22.83;;
8113;SDS011;4099;52.684;9.918;2023-02-12T09:18:46;57.13;;;21.53;;
8113;SDS011;4099;52.684;9.918;2023-02-12T09:23:50;59.00;;;22.93;;
8113;SDS011;4099;52.684;9.918;2023-02-12T09:28:52;58.80;;;22.73;;
8113;SDS011;4099;52.684;9.918;2023-02-12T09:33:56;58.97;;;21.87;;
8113;SDS011;4099;52.684;9.918;2023-02-12T09:39:01;65.17;;;24.47;;
8113;SDS011;4099;52.684;9.918;2023-02-12T09:44:05;67.33;;;25.53;;
8113;SDS011;4099;52.684;9.918;2023-02-12T09:49:13;59.37;;;23.37;;
8113;SDS011;4099;52.684;9.918;2023-02-12T09:54:24;60.87;;;24.10;;
8113;SDS011;4099;52.684;9.918;2023-02-12T09:59:35;60.10;;;24.10;;
8113;SDS011;4099;52.684;9.918;2023-02-12T10:04:40;65.80;;;26.17;;
8113;SDS011;4099;52.684;9.918;2023-02-12T10:09:50;57.00;;;25.97;;
8113;SDS011;4099;52.684;9.918;2023-02-12T10:20:37;54.20;;;22.50;;
8113;SDS011;4099;52.684;9.918;2023-02-12T10:25:50;50.00;;;23.00;;
8113;SDS011;4099;52.684;9.918;2023-02-12T10:30:54;46.67;;;21.43;;
8113;SDS011;4099;52.684;9.918;2023-02-12T10:35:59;54.83;;;24.20;;
8113;SDS011;4099;52.684;9.918;2023-02-12T10:41:06;50.83;;;23.07;;
8113;SDS011;4099;52.684;9.918;2023-02-12T10:46:12;53.37;;;27.13;;
8113;SDS011;4099;52.684;9.918;2023-02-12T10:51:19;47.87;;;23.27;;
8113;SDS011;4099;52.684;9.918;2023-02-12T10:56:35;50.10;;;22.43;;
8113;SDS011;4099;52.684;9.918;2023-02-12T11:01:37;46.60;;;21.50;;
8113;SDS011;4099;52.684;9.918;2023-02-12T11:06:44;44.47;;;22.27;;
8113;SDS011;4099;52.684;9.918;2023-02-12T11:11:59;42.07;;;21.47;;
8113;SDS011;4099;52.684;9.918;2023-02-12T11:17:00;45.73;;;21.67;;
8113;SDS011;4099;52.684;9.918;2023-02-12T11:22:03;35.63;;;19.60;;
8113;SDS011;4099;52.684;9.918;2023-02-12T11:27:12;37.43;;;19.73;;
8113;SDS011;4099;52.684;9.918;2023-02-12T11:32:22;39.30;;;20.67;;
8113;SDS011;4099;52.684;9.918;2023-02-12T11:37:27;35.27;;;19.53;;
8113;SDS011;4099;52.684;9.918;2023-02-12T11:42:32;36.17;;;19.20;;
8113;SDS011;4099;52.684;9.918;2023-02-12T11:47:37;33.93;;;18.67;;
8113;SDS011;4099;52.684;9.918;2023-02-12T11:52:41;36.40;;;21.33;;
8113;SDS011;4099;52.684;9.918;2023-02-12T11:57:46;28.87;;;16.80;;
8113;SDS011;4099;52.684;9.918;2023-02-12T12:02:49;23.10;;;14.23;;
8113;SDS011;4099;52.684;9.918;2023-02-12T12:07:58;24.90;;;15.43;;
8113;SDS011;4099;52.684;9.918;2023-02-12T12:13:08;23.23;;;14.10;;
8113;SDS011;4099;52.684;9.918;2023-02-12T12:18:16;24.33;;;14.10;;
8113;SDS011;4099;52.684;9.918;2023-02-12T12:23:45;23.97;;;13.33;;
8113;SDS011;4099;52.684;9.918;2023-02-12T12:28:56;20.57;;;11.77;;
8113;SDS011;4099;52.684;9.918;2023-02-12T12:34:04;16.30;;;10.90;;
8113;SDS011;4099;52.684;9.918;2023-02-12T12:39:14;17.30;;;10.17;;
8113;SDS011;4099;52.684;9.918;2023-02-12T12:44:26;14.80;;;9.90;;
8113;SDS011;4099;52.684;9.918;2023-02-12T12:49:46;15.10;;;9.70;;
8113;SDS011;4099;52.684;9.918;2023-02-12T12:55:10;17.60;;;9.87;;
8113;SDS011;4099;52.684;9.918;2023-02-12T13:00:47;15.47;;;10.40;;
8113;SDS011;4099;52.684;9.918;2023-02-12T13:06:10;14.33;;;10.03;;
8113;SDS011;4099;52.684;9.918;2023-02-12T13:11:23;14.80;;;10.30;;
8113;SDS011;4099;52.684;9.918;2023-02-12T13:16:37;14.47;;;9.63;;
8113;SDS011;4099;52.684;9.918;2023-02-12T13:21:47;14.80;;;10.03;;
8113;SDS011;4099;52.684;9.918;2023-02-12T13:26:53;15.43;;;10.73;;
8113;SDS011;4099;52.684;9.918;2023-02-12T13:32:00;15.20;;;10.57;;
8113;SDS011;4099;52.684;9.918;2023-02-12T13:37:06;21.27;;;13.93;;
8113;SDS011;4099;52.684;9.918;2023-02-12T13:42:18;18.67;;;11.57;;
8113;SDS011;4099;52.684;9.918;2023-02-12T13:47:32;17.87;;;10.73;;
8113;SDS011;4099;52.684;9.918;2023-02-12T13:52:45;18.97;;;12.10;;
8113;SDS011;4099;52.684;9.918;2023-02-12T14:03:35;18.07;;;12.20;;
8113;SDS011;4099;52.684;9.918;2023-02-12T14:08:40;17.53;;;12.00;;
8113;SDS011;4099;52.684;9.918;2023-02-12T14:13:45;23.73;;;13.73;;
8113;SDS011;4099;52.684;9.918;2023-02-12T14:18:53;20.17;;;13.97;;
8113;SDS011;4099;52.684;9.918;2023-02-12T14:24:47;15.93;;;10.20;;
8113;SDS011;4099;52.684;9.918;2023-02-12T14:30:01;15.03;;;11.63;;
8113;SDS011;4099;52.684;9.918;2023-02-12T14:35:32;14.13;;;11.27;;
8113;SDS011;4099;52.684;9.918;2023-02-12T14:40:36;17.33;;;10.80;;
8113;SDS011;4099;52.684;9.918;2023-02-12T14:45:41;16.73;;;12.80;;
8113;SDS011;4099;52.684;9.918;2023-02-12T14:50:44;17.93;;;12.37;;
8113;SDS011;4099;52.684;9.918;2023-02-12T14:55:51;17.23;;;11.90;;
8113;SDS011;4099;52.684;9.918;2023-02-12T15:00:54;16.30;;;10.90;;
8113;SDS011;4099;52.684;9.918;2023-02-12T15:06:03;17.30;;;12.97;;
8113;SDS011;4099;52.684;9.918;2023-02-12T15:16:40;18.47;;;13.27;;
8113;SDS011;4099;52.684;9.918;2023-02-12T15:21:51;23.70;;;16.23;;
8113;SDS011;4099;52.684;9.918;2023-02-12T15:26:55;22.07;;;15.60;;
8113;SDS011;4099;52.684;9.918;2023-02-12T15:32:01;19.23;;;12.80;;
8113;SDS011;4099;52.684;9.918;2023-02-12T15:37:07;20.77;;;13.77;;
8113;SDS011;4099;52.684;9.918;2023-02-12T15:42:27;21.37;;;13.47;;
8113;SDS011;4099;52.684;9.918;2023-02-12T15:47:31;18.77;;;12.43;;
8113;SDS011;4099;52.684;9.918;2023-02-12T15:52:36;17.53;;;12.17;;
8113;SDS011;4099;52.684;9.918;2023-02-12T15:57:39;17.53;;;11.90;;
8113;SDS011;4099;52.684;9.918;2023-02-12T16:02:42;18.00;;;12.23;;
8113;SDS011;4099;52.684;9.918;2023-02-12T16:07:53;17.57;;;12.23;;
8113;SDS011;4099;52.684;9.918;2023-02-12T16:12:56;21.03;;;14.70;;
8113;SDS011;4099;52.684;9.918;2023-02-12T16:17:59;18.57;;;12.97;;
8113;SDS011;4099;52.684;9.918;2023-02-12T16:23:05;19.43;;;14.17;;
8113;SDS011;4099;52.684;9.918;2023-02-12T16:28:13;17.40;;;12.93;;
8113;SDS011;4099;52.684;9.918;2023-02-12T16:33:30;16.37;;;12.10;;
8113;SDS011;4099;52.684;9.918;2023-02-12T16:38:38;19.73;;;13.67;;
8113;SDS011;4099;52.684;9.918;2023-02-12T16:43:42;18.97;;;12.47;;
8113;SDS011;4099;52.684;9.918;2023-02-12T16:48:45;16.80;;;10.53;;
8113;SDS011;4099;52.684;9.918;2023-02-12T16:53:50;16.53;;;11.73;;
8113;SDS011;4099;52.684;9.918;2023-02-12T16:58:57;18.30;;;12.07;;
8113;SDS011;4099;52.684;9.918;2023-02-12T17:04:00;18.20;;;12.80;;
8113;SDS011;4099;52.684;9.918;2023-02-12T17:09:07;14.17;;;9.90;;
8113;SDS011;4099;52.684;9.918;2023-02-12T17:14:11;17.17;;;11.40;;
8113;SDS011;4099;52.684;9.918;2023-02-12T17:19:15;16.13;;;11.83;;
8113;SDS011;4099;52.684;9.918;2023-02-12T17:24:19;18.83;;;12.53;;
8113;SDS011;4099;52.684;9.918;2023-02-12T17:29:23;15.83;;;11.87;;
8113;SDS011;4099;52.684;9.918;2023-02-12T17:34:27;18.60;;;13.07;;
8113;SDS011;4099;52.684;9.918;2023-02-12T17:39:30;18.63;;;13.90;;
8113;SDS011;4099;52.684;9.918;2023-02-12T17:44:32;19.93;;;13.33;;
8113;SDS011;4099;52.684;9.918;2023-02-12T17:49:34;19.97;;;14.60;;
8113;SDS011;4099;52.684;9.918;2023-02-12T17:54:39;19.13;;;13.50;;
8113;SDS011;4099;52.684;9.918;2023-02-12T17:59:44;17.93;;;11.30;;
8113;SDS011;4099;52.684;9.918;2023-02-12T18:04:46;20.30;;;14.07;;
8113;SDS011;4099;52.684;9.918;2023-02-12T18:09:50;25.40;;;15.90;;
8113;SDS011;4099;52.684;9.918;2023-02-12T18:14:54;20.70;;;13.17;;
8113;SDS011;4099;52.684;9.918;2023-02-12T18:19:57;21.03;;;14.77;;
8113;SDS011;4099;52.684;9.918;2023-02-12T18:25:00;20.33;;;12.97;;
8113;SDS011;4099;52.684;9.918;2023-02-12T18:30:03;17.60;;;11.97;;
8113;SDS011;4099;52.684;9.918;2023-02-12T18:35:06;19.90;;;13.97;;
8113;SDS011;4099;52.684;9.918;2023-02-12T18:40:10;20.73;;;14.80;;
8113;SDS011;4099;52.684;9.918;2023-02-12T18:45:12;22.23;;;15.10;;
8113;SDS011;4099;52.684;9.918;2023-02-12T18:50:14;27.10;;;16.80;;
8113;SDS011;4099;52.684;9.918;2023-02-12T18:55:17;30.97;;;19.53;;
8113;SDS011;4099;52.684;9.918;2023-02-12T19:00:19;28.37;;;21.73;;
8113;SDS011;4099;52.684;9.918;2023-02-12T19:05:21;25.97;;;19.93;;
8113;SDS011;4099;52.684;9.918;2023-02-12T19:10:26;26.83;;;18.07;;
8113;SDS011;4099;52.684;9.918;2023-02-12T19:15:28;25.00;;;16.97;;
8113;SDS011;4099;52.684;9.918;2023-02-12T19:20:30;28.33;;;19.07;;
8113;SDS011;4099;52.684;9.918;2023-02-12T19:25:34;28.83;;;20.70;;
8113;SDS011;4099;52.684;9.918;2023-02-12T19:30:41;30.00;;;19.93;;
8113;SDS011;4099;52.684;9.918;2023-02-12T19:35:43;31.63;;;20.93;;
8113;SDS011;4099;52.684;9.918;2023-02-12T19:40:50;33.03;;;20.77;;
8113;SDS011;4099;52.684;9.918;2023-02-12T19:45:52;28.83;;;17.67;;
8113;SDS011;4099;52.684;9.918;2023-02-12T19:50:54;29.17;;;19.10;;
8113;SDS011;4099;52.684;9.918;2023-02-12T19:56:00;35.10;;;22.73;;
8113;SDS011;4099;52.684;9.918;2023-02-12T20:01:06;57.93;;;30.00;;
8113;SDS011;4099;52.684;9.918;2023-02-12T20:06:10;59.23;;;32.80;;
8113;SDS011;4099;52.684;9.918;2023-02-12T20:11:16;33.37;;;20.67;;
8113;SDS011;4099;52.684;9.918;2023-02-12T20:16:20;27.07;;;15.37;;
8113;SDS011;4099;52.684;9.918;2023-02-12T20:21:24;32.37;;;17.37;;
8113;SDS011;4099;52.684;9.918;2023-02-12T20:26:29;27.53;;;17.70;;
8113;SDS011;4099;52.684;9.918;2023-02-12T20:31:32;29.93;;;18.43;;
8113;SDS011;4099;52.684;9.918;2023-02-12T20:36:36;37.73;;;22.90;;
8113;SDS011;4099;52.684;9.918;2023-02-12T20:41:41;33.00;;;20.27;;
8113;SDS011;4099;52.684;9.918;2023-02-12T20:46:43;31.07;;;18.43;;
8113;SDS011;4099;52.684;9.918;2023-02-12T20:51:47;33.00;;;17.70;;
8113;SDS011;4099;52.684;9.918;2023-02-12T20:56:51;24.17;;;15.77;;
8113;SDS011;4099;52.684;9.918;2023-02-12T21:01:53;24.07;;;15.83;;
8113;SDS011;4099;52.684;9.918;2023-02-12T21:06:54;27.97;;;17.33;;
8113;SDS011;4099;52.684;9.918;2023-02-12T21:11:57;33.63;;;20.77;;
8113;SDS011;4099;52.684;9.918;2023-02-12T21:16:59;27.77;;;18.10;;
8113;SDS011;4099;52.684;9.918;2023-02-12T21:22:01;31.07;;;19.40;;
8113;SDS011;4099;52.684;9.918;2023-02-12T21:27:05;24.43;;;16.77;;
8113;SDS011;4099;52.684;9.918;2023-02-12T21:32:07;29.63;;;19.23;;
8113;SDS011;4099;52.684;9.918;2023-02-12T21:37:08;25.60;;;17.47;;
8113;SDS011;4099;52.684;9.918;2023-02-12T21:42:11;27.60;;;18.60;;
8113;SDS011;4099;52.684;9.918;2023-02-12T21:47:13;30.43;;;19.03;;
8113;SDS011;4099;52.684;9.918;2023-02-12T21:52:15;27.43;;;18.30;;
8113;SDS011;4099;52.684;9.918;2023-02-12T21:57:18;25.27;;;17.53;;
8113;SDS011;4099;52.684;9.918;2023-02-12T22:02:21;24.37;;;16.77;;
8113;SDS011;4099;52.684;9.918;2023-02-12T22:07:23;26.07;;;18.27;;
8113;SDS011;4099;52.684;9.918;2023-02-12T22:12:26;30.13;;;18.63;;
8113;SDS011;4099;52.684;9.918;2023-02-12T22:17:31;36.33;;;21.77;;
8113;SDS011;4099;52.684;9.918;2023-02-12T22:22:33;35.53;;;21.63;;
8113;SDS011;4099;52.684;9.918;2023-02-12T22:27:36;32.00;;;19.50;;
8113;SDS011;4099;52.684;9.918;2023-02-12T22:32:38;32.63;;;19.53;;
8113;SDS011;4099;52.684;9.918;2023-02-12T22:37:41;29.90;;;18.87;;
8113;SDS011;4099;52.684;9.918;2023-02-12T22:42:44;28.93;;;18.60;;
8113;SDS011;4099;52.684;9.918;2023-02-12T22:47:46;27.17;;;18.37;;
8113;SDS011;4099;52.684;9.918;2023-02-12T22:52:48;26.37;;;17.00;;
8113;SDS011;4099;52.684;9.918;2023-02-12T22:57:51;26.77;;;17.30;;
8113;SDS011;4099;52.684;9.918;2023-02-12T23:02:53;24.60;;;16.50;;
8113;SDS011;4099;52.684;9.918;2023-02-12T23:07:54;25.23;;;15.87;;
8113;SDS011;4099;52.684;9.918;2023-02-12T23:12:58;23.83;;;15.47;;
8113;SDS011;4099;52.684;9.918;2023-02-12T23:18:01;28.93;;;18.07;;
8113;SDS011;4099;52.684;9.918;2023-02-12T23:23:03;22.63;;;14.77;;
8113;SDS011;4099;52.684;9.918;2023-02-12T23:28:06;20.33;;;14.00;;
8113;SDS011;4099;52.684;9.918;2023-02-12T23:33:08;25.53;;;15.00;;
8113;SDS011;4099;52.684;9.918;2023-02-12T23:38:10;26.10;;;15.23;;
8113;SDS011;4099;52.684;9.918;2023-02-12T23:43:14;26.17;;;15.50;;
8113;SDS011;4099;52.684;9.918;2023-02-12T23:48:16;21.50;;;13.77;;
8113;SDS011;4099;52.684;9.918;2023-02-12T23:53:17;24.07;;;14.57;;
8113;SDS011;4099;52.684;9.918;2023-02-12T23:58:21;23.40;;;14.60;;
